Wetterdaten: Samstag, 03.01.2015
Datum Zeit Temp. A. Feuchte A. Luftdruck Regen Wind Richtung Richtung Sonnenschein ET UV Solar Taupunkt Windchill Windben Empfang
03.01.2015 00:00 2,5 C 83 % 1033,5 hPa 0,0 l/m 1,8 km/h (1 Bft) W-SW 251 0 min 0,000 mm 0,0 UV-I 0 W/m -0,1 C 2,5 C 4,0 km/h (1 Bft) 0,00 %
03.01.2015 00:15 2,6 C 82 % 1033,2 hPa 0,0 l/m 11,9 km/h (2 Bft) W-SW 251 0 min 0,000 mm 0,0 UV-I 0 W/m -0,2 C -1,9 C 15,8 km/h (3 Bft) 0,00 %
03.01.2015 00:30 2,6 C 82 % 1033,2 hPa 0,0 l/m 13,0 km/h (3 Bft) W 279 0 min 0,000 mm 0,0 UV-I 0 W/m -0,2 C -2,7 C 24,1 km/h (4 Bft) 0,00 %
03.01.2015 00:45 2,5 C 81 % 1033,0 hPa 0,0 l/m 1,4 km/h (1 Bft) O-NO 76 0 min 0,000 mm 0,0 UV-I 0 W/m -0,4 C 2,5 C 4,0 km/h (1 Bft) 0,00 %
03.01.2015 01:00 2,6 C 80 % 1032,9 hPa 0,0 l/m 3,2 km/h (1 Bft) W 261 0 min 0,000 mm 0,0 UV-I 0 W/m -0,5 C 2,6 C 4,0 km/h (1 Bft) 0,00 %
03.01.2015 01:15 2,5 C 81 % 1033,0 hPa 0,0 l/m 2,9 km/h (1 Bft) W-SW 256 0 min 0,000 mm 0,0 UV-I 0 W/m -0,4 C 2,5 C 4,0 km/h (1 Bft) 0,00 %
03.01.2015 01:30 2,6 C 80 % 1033,2 hPa 0,0 l/m 4,7 km/h (1 Bft) W-NW 292 0 min 0,000 mm 0,0 UV-I 0 W/m -0,5 C 2,6 C 7,9 km/h (2 Bft) 0,00 %
03.01.2015 01:45 2,5 C 80 % 1033,3 hPa 0,0 l/m 6,5 km/h (2 Bft) SW 225 0 min 0,000 mm 0,0 UV-I 0 W/m -0,6 C 2,4 C 7,9 km/h (2 Bft) 0,00 %
03.01.2015 02:00 2,6 C 80 % 1033,1 hPa 0,0 l/m 9,4 km/h (2 Bft) SW 232 0 min 0,000 mm 0,0 UV-I 0 W/m -0,5 C -0,1 C 11,9 km/h (2 Bft) 0,00 %
03.01.2015 02:15 2,6 C 79 % 1033,4 hPa 0,0 l/m 6,5 km/h (2 Bft) O 98 0 min 0,000 mm 0,0 UV-I 0 W/m -0,7 C 2,5 C 11,9 km/h (2 Bft) 0,00 %
03.01.2015 02:30 2,4 C 80 % 1033,5 hPa 0,0 l/m 4,3 km/h (1 Bft) W-SW 253 0 min 0,000 mm 0,0 UV-I 0 W/m -0,7 C 2,4 C 7,9 km/h (2 Bft) 0,00 %
03.01.2015 02:45 2,4 C 75 % 1033,5 hPa 0,0 l/m 8,3 km/h (2 Bft) W-SW 251 0 min 0,000 mm 0,0 UV-I 0 W/m -1,6 C 0,6 C 11,9 km/h (2 Bft) 0,00 %
03.01.2015 03:00 2,4 C 76 % 1033,6 hPa 0,0 l/m 25,6 km/h (4 Bft) W-NW 286 0 min 0,000 mm 0,0 UV-I 0 W/m -1,4 C -8,7 C 36,0 km/h (5 Bft) 0,00 %
03.01.2015 03:15 2,4 C 71 % 1033,6 hPa 0,0 l/m 2,2 km/h (1 Bft) W-SW 250 0 min 0,000 mm 0,0 UV-I 0 W/m -2,3 C 2,4 C 11,9 km/h (2 Bft) 0,00 %
03.01.2015 03:30 2,3 C 70 % 1033,6 hPa 0,0 l/m 3,2 km/h (1 Bft) W-SW 253 0 min 0,000 mm 0,0 UV-I 0 W/m -2,6 C 2,3 C 4,0 km/h (1 Bft) 0,00 %
03.01.2015 03:45 2,2 C 68 % 1033,5 hPa 0,0 l/m 15,5 km/h (3 Bft) W-SW 251 0 min 0,000 mm 0,0 UV-I 0 W/m -3,1 C -4,6 C 19,8 km/h (3 Bft) 0,00 %
03.01.2015 04:00 2,2 C 68 % 1033,5 hPa 0,0 l/m 4,3 km/h (1 Bft) W-SW 252 0 min 0,000 mm 0,0 UV-I 0 W/m -3,1 C 2,2 C 7,9 km/h (2 Bft) 0,00 %
03.01.2015 04:15 2,1 C 67 % 1033,5 hPa 0,0 l/m 4,3 km/h (1 Bft) W-SW 256 0 min 0,000 mm 0,0 UV-I 0 W/m -3,4 C 2,1 C 7,9 km/h (2 Bft) 0,00 %
03.01.2015 04:30 2,0 C 67 % 1033,5 hPa 0,0 l/m 0,7 km/h (0 Bft) W-SW 254 0 min 0,000 mm 0,0 UV-I 0 W/m -3,5 C 2,0 C 4,0 km/h (1 Bft) 0,00 %
03.01.2015 04:45 1,8 C 67 % 1033,5 hPa 0,0 l/m 12,2 km/h (2 Bft) W-SW 256 0 min 0,000 mm 0,0 UV-I 0 W/m -3,7 C -3,1 C 15,8 km/h (3 Bft) 0,00 %
03.01.2015 05:00 1,8 C 67 % 1033,4 hPa 0,0 l/m 2,2 km/h (1 Bft) S-SW 199 0 min 0,000 mm 0,0 UV-I 0 W/m -3,7 C 1,8 C 4,0 km/h (1 Bft) 0,00 %
03.01.2015 05:15 1,7 C 68 % 1033,5 hPa 0,0 l/m 5,4 km/h (1 Bft) SW 215 0 min 0,000 mm 0,0 UV-I 0 W/m -3,6 C 1,7 C 15,8 km/h (3 Bft) 0,00 %
03.01.2015 05:30 1,6 C 68 % 1033,7 hPa 0,0 l/m 2,9 km/h (1 Bft) SW 220 0 min 0,000 mm 0,0 UV-I 0 W/m -3,7 C 1,6 C 4,0 km/h (1 Bft) 0,00 %
03.01.2015 05:45 1,5 C 68 % 1033,9 hPa 0,0 l/m 4,0 km/h (1 Bft) W-SW 244 0 min 0,000 mm 0,0 UV-I 0 W/m -3,7 C 1,5 C 7,9 km/h (2 Bft) 0,00 %
03.01.2015 06:00 1,5 C 68 % 1033,8 hPa 0,0 l/m 0,0 km/h (0 Bft) SW 216 0 min 0,000 mm 0,0 UV-I 0 W/m -3,7 C 1,5 C 0,0 km/h (0 Bft) 0,00 %
03.01.2015 06:15 1,5 C 68 % 1033,8 hPa 0,0 l/m 2,2 km/h (1 Bft) W-SW 251 0 min 0,000 mm 0,0 UV-I 0 W/m -3,7 C 1,5 C 4,0 km/h (1 Bft) 0,00 %
03.01.2015 06:30 1,5 C 68 % 1033,6 hPa 0,0 l/m 0,7 km/h (0 Bft) W-SW 255 0 min 0,000 mm 0,0 UV-I 0 W/m -3,7 C 1,5 C 4,0 km/h (1 Bft) 0,00 %
03.01.2015 06:45 1,4 C 70 % 1033,5 hPa 0,0 l/m 4,7 km/h (1 Bft) W-SW 250 0 min 0,000 mm 0,0 UV-I 0 W/m -3,5 C 1,4 C 11,9 km/h (2 Bft) 0,00 %
03.01.2015 07:00 1,3 C 70 % 1033,4 hPa 0,0 l/m 0,0 km/h (0 Bft) SW 219 0 min 0,000 mm 0,0 UV-I 0 W/m -3,6 C 1,3 C 0,0 km/h (0 Bft) 0,00 %
03.01.2015 07:15 1,1 C 70 % 1033,7 hPa 0,0 l/m 0,0 km/h (0 Bft) NW 326 0 min 0,000 mm 0,0 UV-I 0 W/m -3,7 C 1,1 C 0,0 km/h (0 Bft) 0,00 %
03.01.2015 07:30 1,0 C 70 % 1033,0 hPa 0,0 l/m 2,9 km/h (1 Bft) W-NW 293 0 min 0,000 mm 0,0 UV-I 0 W/m -3,8 C 1,0 C 7,9 km/h (2 Bft) 0,00 %
03.01.2015 07:45 0,9 C 70 % 1033,1 hPa 0,0 l/m 0,0 km/h (0 Bft) W-SW 256 0 min 0,000 mm 0,0 UV-I 0 W/m -3,9 C 0,9 C 0,0 km/h (0 Bft) 0,00 %
03.01.2015 08:00 0,9 C 70 % 1032,7 hPa 0,0 l/m 0,7 km/h (0 Bft) W 271 0 min 0,000 mm 0,0 UV-I 0 W/m -3,9 C 0,9 C 4,0 km/h (1 Bft) 0,00 %
03.01.2015 08:15 1,1 C 70 % 1032,5 hPa 0,0 l/m 0,0 km/h (0 Bft) O-SO 117 0 min 0,000 mm 0,0 UV-I 7 W/m -3,7 C 1,1 C 0,0 km/h (0 Bft) 0,00 %
03.01.2015 08:30 1,2 C 69 % 1031,9 hPa 0,0 l/m 0,7 km/h (0 Bft) S-SW 212 0 min 0,000 mm 0,0 UV-I 29 W/m -3,8 C 1,2 C 4,0 km/h (1 Bft) 0,00 %
03.01.2015 08:45 1,2 C 69 % 1032,2 hPa 0,0 l/m 3,2 km/h (1 Bft) W-SW 251 0 min 0,000 mm 1,0 UV-I 40 W/m -3,8 C 1,2 C 4,0 km/h (1 Bft) 0,00 %
03.01.2015 09:00 1,3 C 68 % 1031,8 hPa 0,0 l/m 1,4 km/h (1 Bft) W-NW 284 0 min 0,000 mm 1,0 UV-I 63 W/m -3,9 C 1,3 C 4,0 km/h (1 Bft) 0,00 %
03.01.2015 09:15 1,9 C 67 % 1031,6 hPa 0,0 l/m 2,2 km/h (1 Bft) W-SW 251 0 min 0,000 mm 1,0 UV-I 66 W/m -3,6 C 1,9 C 4,0 km/h (1 Bft) 0,00 %
03.01.2015 09:30 2,1 C 66 % 1031,5 hPa 0,0 l/m 2,2 km/h (1 Bft) W-SW 256 0 min 0,000 mm 1,0 UV-I 89 W/m -3,6 C 2,1 C 7,9 km/h (2 Bft) 0,00 %
03.01.2015 09:45 2,5 C 69 % 1031,2 hPa 0,0 l/m 1,4 km/h (1 Bft) W-SW 256 0 min 0,000 mm 1,0 UV-I 103 W/m -2,6 C 2,5 C 4,0 km/h (1 Bft) 0,00 %
03.01.2015 10:00 2,7 C 69 % 1030,8 hPa 0,0 l/m 0,0 km/h (0 Bft) NO 49 0 min 0,000 mm 1,0 UV-I 120 W/m -2,4 C 2,7 C 0,0 km/h (0 Bft) 0,00 %
03.01.2015 10:15 2,6 C 69 % 1030,6 hPa 0,0 l/m 0,0 km/h (0 Bft) N-NW 344 0 min 0,000 mm 1,0 UV-I 105 W/m -2,5 C 2,6 C 0,0 km/h (0 Bft) 0,00 %
03.01.2015 10:30 2,8 C 69 % 1030,6 hPa 0,0 l/m 0,4 km/h (0 Bft) N-NO 27 0 min 0,000 mm 1,0 UV-I 139 W/m -2,3 C 2,8 C 4,0 km/h (1 Bft) 0,00 %
03.01.2015 10:45 3,1 C 71 % 1030,5 hPa 0,9 l/m 0,0 km/h (0 Bft) S-SW 211 0 min 0,000 mm 1,0 UV-I 125 W/m -1,6 C 3,1 C 0,0 km/h (0 Bft) 0,00 %
03.01.2015 11:00 2,9 C 71 % 1030,1 hPa 0,0 l/m 0,4 km/h (0 Bft) SW 215 0 min 0,000 mm 1,0 UV-I 126 W/m -1,8 C 2,9 C 4,0 km/h (1 Bft) 0,00 %
03.01.2015 11:15 2,9 C 70 % 1029,7 hPa 0,0 l/m 0,0 km/h (0 Bft) SO 132 0 min 0,000 mm 1,0 UV-I 107 W/m -2,0 C 2,9 C 0,0 km/h (0 Bft) 0,00 %
03.01.2015 11:30 2,8 C 71 % 1028,9 hPa 0,0 l/m 0,0 km/h (0 Bft) W-SW 250 0 min 0,000 mm 1,0 UV-I 115 W/m -1,9 C 2,8 C 0,0 km/h (0 Bft) 0,00 %
03.01.2015 11:45 3,2 C 71 % 1028,1 hPa 0,0 l/m 0,0 km/h (0 Bft) S-SW 207 0 min 0,000 mm 1,0 UV-I 136 W/m -1,5 C 3,2 C 0,0 km/h (0 Bft) 0,00 %
03.01.2015 12:00 3,6 C 69 % 1027,4 hPa 0,0 l/m 0,0 km/h (0 Bft) N 11 15 min 0,000 mm 2,0 UV-I 210 W/m -1,5 C 3,6 C 0,0 km/h (0 Bft) 0,00 %
03.01.2015 12:15 4,0 C 68 % 1026,6 hPa 0,0 l/m 0,0 km/h (0 Bft) W-SW 253 15 min 0,000 mm 2,0 UV-I 223 W/m -1,4 C 4,0 C 0,0 km/h (0 Bft) 0,00 %
03.01.2015 12:30 4,1 C 67 % 1025,7 hPa 0,0 l/m 0,4 km/h (0 Bft) W-SW 253 15 min 0,000 mm 1,0 UV-I 234 W/m -1,5 C 4,1 C 4,0 km/h (1 Bft) 0,00 %
03.01.2015 12:45 4,0 C 67 % 1025,4 hPa 0,0 l/m 0,4 km/h (0 Bft) W-SW 251 15 min 0,000 mm 1,0 UV-I 234 W/m -1,6 C 4,0 C 4,0 km/h (1 Bft) 0,00 %
03.01.2015 13:00 4,1 C 66 % 1024,9 hPa 0,0 l/m 0,0 km/h (0 Bft) SW 231 0 min 0,000 mm 2,0 UV-I 148 W/m -1,7 C 4,1 C 0,0 km/h (0 Bft) 0,00 %
03.01.2015 13:15 4,4 C 64 % 1024,3 hPa 0,0 l/m 0,0 km/h (0 Bft) W-SW 253 0 min 0,000 mm 1,0 UV-I 128 W/m -1,8 C 4,4 C 0,0 km/h (0 Bft) 0,00 %
03.01.2015 13:30 4,3 C 65 % 1023,9 hPa 0,0 l/m 0,0 km/h (0 Bft) W-SW 253 0 min 0,000 mm 1,0 UV-I 131 W/m -1,7 C 4,3 C 0,0 km/h (0 Bft) 0,00 %
03.01.2015 13:45 4,5 C 63 % 1023,4 hPa 0,0 l/m 0,0 km/h (0 Bft) W-SW 253 0 min 0,000 mm 1,0 UV-I 149 W/m -1,9 C 4,5 C 0,0 km/h (0 Bft) 0,00 %
03.01.2015 14:00 4,3 C 65 % 1023,6 hPa 0,0 l/m 0,0 km/h (0 Bft) SW 215 0 min 0,000 mm 1,0 UV-I 124 W/m -1,7 C 4,3 C 0,0 km/h (0 Bft) 0,00 %
03.01.2015 14:15 4,6 C 63 % 1023,1 hPa 0,0 l/m 0,0 km/h (0 Bft) SW 228 0 min 0,000 mm 1,0 UV-I 83 W/m -1,8 C 4,6 C 0,0 km/h (0 Bft) 0,00 %
03.01.2015 14:30 4,4 C 64 % 1022,7 hPa 0,0 l/m 0,0 km/h (0 Bft) SW 230 0 min 0,000 mm 1,0 UV-I 91 W/m -1,8 C 4,4 C 0,0 km/h (0 Bft) 0,00 %
03.01.2015 14:45 4,2 C 65 % 1022,3 hPa 0,0 l/m 0,0 km/h (0 Bft) SW 216 0 min 0,000 mm 1,0 UV-I 79 W/m -1,8 C 4,2 C 0,0 km/h (0 Bft) 0,00 %
03.01.2015 15:00 4,0 C 66 % 1022,5 hPa 0,0 l/m 0,0 km/h (0 Bft) SW 228 0 min 0,000 mm 0,0 UV-I 18 W/m -1,8 C 4,0 C 0,0 km/h (0 Bft) 0,00 %
03.01.2015 15:15 3,5 C 69 % 1022,5 hPa 0,0 l/m 0,0 km/h (0 Bft) SW 228 0 min 0,000 mm 0,0 UV-I 10 W/m -1,6 C 3,5 C 0,0 km/h (0 Bft) 0,00 %
03.01.2015 15:30 3,2 C 71 % 1022,6 hPa 0,0 l/m 0,0 km/h (0 Bft) SW 225 0 min 0,000 mm 0,0 UV-I 4 W/m -1,5 C 3,2 C 0,0 km/h (0 Bft) 0,00 %
03.01.2015 15:45 3,0 C 72 % 1021,9 hPa 0,0 l/m 0,0 km/h (0 Bft) SW 216 0 min 0,000 mm 0,0 UV-I 3 W/m -1,5 C 3,0 C 0,0 km/h (0 Bft) 0,00 %
03.01.2015 16:00 2,9 C 73 % 1021,5 hPa 0,0 l/m 0,0 km/h (0 Bft) SW 216 0 min 0,000 mm 0,0 UV-I 0 W/m -1,5 C 2,9 C 0,0 km/h (0 Bft) 0,00 %
03.01.2015 16:15 2,7 C 76 % 1020,9 hPa 0,0 l/m 0,0 km/h (0 Bft) S 183 0 min 0,000 mm 0,0 UV-I 0 W/m -1,1 C 2,7 C 0,0 km/h (0 Bft) 0,00 %
03.01.2015 16:30 2,5 C 71 % 1020,5 hPa 0,0 l/m 0,0 km/h (0 Bft) S 183 0 min 0,000 mm 0,0 UV-I 0 W/m -2,2 C 2,5 C 0,0 km/h (0 Bft) 0,00 %
03.01.2015 16:45 2,2 C 74 % 1020,1 hPa 0,6 l/m 0,0 km/h (0 Bft) S-SW 210 0 min 0,000 mm 0,0 UV-I 0 W/m -1,9 C 2,2 C 0,0 km/h (0 Bft) 0,00 %
03.01.2015 17:00 2,0 C 78 % 1019,8 hPa 0,3 l/m 0,0 km/h (0 Bft) SW 218 0 min 0,000 mm 0,0 UV-I 0 W/m -1,4 C 2,0 C 0,0 km/h (0 Bft) 0,00 %
03.01.2015 17:15 1,6 C 78 % 1019,0 hPa 0,6 l/m 0,0 km/h (0 Bft) S 189 0 min 0,000 mm 0,0 UV-I 0 W/m -1,8 C 1,6 C 0,0 km/h (0 Bft) 0,00 %
03.01.2015 17:30 1,1 C 79 % 1018,6 hPa 0,3 l/m 1,4 km/h (1 Bft) W-SW 252 0 min 0,000 mm 0,0 UV-I 0 W/m -2,1 C 1,1 C 4,0 km/h (1 Bft) 0,00 %
03.01.2015 17:45 0,5 C 80 % 1018,6 hPa 0,0 l/m 0,0 km/h (0 Bft) S-SW 201 0 min 0,000 mm 0,0 UV-I 0 W/m -2,5 C 0,5 C 0,0 km/h (0 Bft) 0,00 %
03.01.2015 18:00 0,1 C 81 % 1018,4 hPa 0,0 l/m 0,0 km/h (0 Bft) S-SW 194 0 min 0,000 mm 0,0 UV-I 0 W/m -2,8 C 0,1 C 0,0 km/h (0 Bft) 0,00 %
03.01.2015 18:15 0,0 C 81 % 1018,3 hPa 0,0 l/m 0,0 km/h (0 Bft) S-SW 203 0 min 0,000 mm 0,0 UV-I 0 W/m -2,9 C 0,0 C 0,0 km/h (0 Bft) 0,00 %
03.01.2015 18:30 -0,1 C 81 % 1018,3 hPa 0,0 l/m 0,0 km/h (0 Bft) S-SW 203 0 min 0,000 mm 0,0 UV-I 0 W/m -3,0 C -0,1 C 0,0 km/h (0 Bft) 0,00 %
03.01.2015 18:45 -0,2 C 81 % 1018,7 hPa 0,0 l/m 0,0 km/h (0 Bft) SW 219 0 min 0,000 mm 0,0 UV-I 0 W/m -3,1 C -0,2 C 0,0 km/h (0 Bft) 0,00 %
03.01.2015 19:00 -0,1 C 82 % 1018,5 hPa 0,0 l/m 0,0 km/h (0 Bft) SW 215 0 min 0,000 mm 0,0 UV-I 0 W/m -2,8 C -0,1 C 0,0 km/h (0 Bft) 0,00 %
03.01.2015 19:15 -0,2 C 82 % 1018,0 hPa 0,0 l/m 0,0 km/h (0 Bft) SW 216 0 min 0,000 mm 0,0 UV-I 0 W/m -2,9 C -0,2 C 0,0 km/h (0 Bft) 0,00 %
03.01.2015 19:30 -0,2 C 82 % 1017,2 hPa 0,0 l/m 0,0 km/h (0 Bft) S-SW 201 0 min 0,000 mm 0,0 UV-I 0 W/m -2,9 C -0,2 C 0,0 km/h (0 Bft) 0,00 %
03.01.2015 19:45 -0,2 C 82 % 1017,3 hPa 0,0 l/m 0,0 km/h (0 Bft) S-SW 209 0 min 0,000 mm 0,0 UV-I 0 W/m -2,9 C -0,2 C 0,0 km/h (0 Bft) 0,00 %
03.01.2015 20:00 -0,1 C 82 % 1016,7 hPa 0,0 l/m 0,0 km/h (0 Bft) S-SW 202 0 min 0,000 mm 0,0 UV-I 0 W/m -2,8 C -0,1 C 0,0 km/h (0 Bft) 0,00 %
03.01.2015 20:15 0,0 C 82 % 1016,1 hPa 0,0 l/m 0,0 km/h (0 Bft) SW 215 0 min 0,000 mm 0,0 UV-I 0 W/m -2,7 C 0,0 C 0,0 km/h (0 Bft) 0,00 %
03.01.2015 20:30 0,0 C 83 % 1015,4 hPa 0,0 l/m 0,0 km/h (0 Bft) S 185 0 min 0,000 mm 0,0 UV-I 0 W/m -2,5 C 0,0 C 0,0 km/h (0 Bft) 0,00 %
03.01.2015 20:45 0,0 C 83 % 1015,0 hPa 0,0 l/m 0,0 km/h (0 Bft) S 173 0 min 0,000 mm 0,0 UV-I 0 W/m -2,5 C 0,0 C 0,0 km/h (0 Bft) 0,00 %
03.01.2015 21:00 0,0 C 83 % 1014,9 hPa 0,0 l/m 0,0 km/h (0 Bft) S 173 0 min 0,000 mm 0,0 UV-I 0 W/m -2,5 C 0,0 C 0,0 km/h (0 Bft) 0,00 %
03.01.2015 21:15 0,0 C 83 % 1014,4 hPa 0,0 l/m 0,0 km/h (0 Bft) S 173 0 min 0,000 mm 0,0 UV-I 0 W/m -2,5 C 0,0 C 0,0 km/h (0 Bft) 0,00 %
03.01.2015 21:30 0,0 C 83 % 1014,2 hPa 0,6 l/m 0,0 km/h (0 Bft) S 173 0 min 0,000 mm 0,0 UV-I 0 W/m -2,5 C 0,0 C 0,0 km/h (0 Bft) 0,00 %
03.01.2015 21:45 0,0 C 83 % 1013,7 hPa 0,6 l/m 0,0 km/h (0 Bft) S 173 0 min 0,000 mm 0,0 UV-I 0 W/m -2,5 C 0,0 C 0,0 km/h (0 Bft) 0,00 %
03.01.2015 22:00 -0,1 C 83 % 1013,2 hPa 1,2 l/m 0,0 km/h (0 Bft) O-SO 121 0 min 0,000 mm 0,0 UV-I 0 W/m -2,6 C -0,1 C 0,0 km/h (0 Bft) 0,00 %
03.01.2015 22:15 -0,1 C 83 % 1012,7 hPa 1,2 l/m 0,0 km/h (0 Bft) SW 217 0 min 0,000 mm 0,0 UV-I 0 W/m -2,6 C -0,1 C 0,0 km/h (0 Bft) 0,00 %
03.01.2015 22:30 0,0 C 83 % 1012,6 hPa 0,6 l/m 0,0 km/h (0 Bft) SW 231 0 min 0,000 mm 0,0 UV-I 0 W/m -2,5 C 0,0 C 0,0 km/h (0 Bft) 0,00 %
03.01.2015 22:45 -0,1 C 83 % 1012,9 hPa 0,9 l/m 0,0 km/h (0 Bft) W-SW 250 0 min 0,000 mm 0,0 UV-I 0 W/m -2,6 C -0,1 C 0,0 km/h (0 Bft) 0,00 %
03.01.2015 23:00 -0,2 C 83 % 1013,1 hPa 0,9 l/m 0,0 km/h (0 Bft) N-NW 338 0 min 0,000 mm 0,0 UV-I 0 W/m -2,7 C -0,2 C 0,0 km/h (0 Bft) 0,00 %
03.01.2015 23:15 -0,2 C 83 % 1012,8 hPa 0,6 l/m 0,0 km/h (0 Bft) S 180 0 min 0,000 mm 0,0 UV-I 0 W/m -2,7 C -0,2 C 0,0 km/h (0 Bft) 0,00 %
03.01.2015 23:30 -0,2 C 83 % 1013,3 hPa 0,0 l/m 0,0 km/h (0 Bft) W-SW 252 0 min 0,000 mm 0,0 UV-I 0 W/m -2,7 C -0,2 C 0,0 km/h (0 Bft) 0,00 %
03.01.2015 23:45 -0,3 C 83 % 1013,5 hPa 0,0 l/m 0,0 km/h (0 Bft) SW 229 0 min 0,000 mm 0,0 UV-I 0 W/m -2,8 C -0,3 C 0,0 km/h (0 Bft) 0,00 %
_ Min-Zeit 23:45 13:45 22:30 - 06:00 - - - - - - 09:00 03:00 06:00 00:00
Minimum _ -0,3 C 63 % 1012,6 hPa - 0,0 km/h (0 Bft) - - - - - - -3,9 C -8,7 C 0,0 km/h (0 Bft) 0,00 %
_ Max-Zeit 14:15 00:00 05:45 22:00 03:00 - - 12:00 00:00 12:00 12:30 00:00 14:15 03:00 00:00
Maximum _ 4,6 C 83 % 1033,9 hPa 1,2 l/m 25,6 km/h
W-NW (4 Bft)
- - 15 min 0,000 mm 2,0 UV-I 234 W/m -0,1 C 4,6 C 36,0 km/h
W-NW (5 Bft)
0,00 %
Durchschnitt _ 1,8 C 74 % 1025,7 hPa #9,3 l/m 1,9 km/h (1 Bft) W-SW - #1:00 h #0,000 mm 1,1 UV-I 104 W/m -2,4 C 1,4 C 3,5 km/h (1 Bft) 0,00 %